Ir al contenido principal

Cae en Beirut un 737-800 al despegar





www.avherald.com
Metars:
OLBA 250300Z 06004KT 030V090 5000 TSSHRA FEW020CB BKN026 10/06 Q1014 NOSIG
OLBA 250200Z 12006KT 8000 VCTS FEW020CB BKN026 11/06 Q1014 NOSIG
OLBA 250100Z VRB03KT 4000 SHRA FEW020CB BKN026 12/07 Q1014 NOSIG
OLBA 250000Z 31008KT 280V340 8000 VCTS FEW020CB SCT026 13/06 Q1014 NOSIG
OLBA 242300Z 32011KT 300V360 8000 FEW020CB SCT026 14/07 Q1014 NOSIG
OLBA 242200Z 32016KT 7000 FEW020CB SCT026 FEW070 14/07 Q1014 NOSIG
OLBA 242100Z 32013KT 5000 TSGR FEW020CB BKN026 13/08 Q1013 NOSIG


http://www.bbc.co.uk/includes/blq/resources/gvl/r61/img/header_blocks.gif

Un avión de pasajeros de la compañía Aerolíneas Etíopes cayó este lunes al mar Mediterráneo poco después de despegar del aeropuerto de Beirut (Líbano), con 90 personas a bordo.

Algunos testigos dijeron haber visto una bola de fuego en el cielo antes de que la nave -que se dirigía a la capital de Etiopía, Addis Abeba- se precipitara en el agua en torno a las 0235 de la mañana hora local (1235 GMT).

Los primeros informes aseguran que el avión, un Boeing 737, desapareció del radar cinco minutos después del despegue, que se desarrolló en mitad de una tormenta.

La empresa Aerolíneas Etíopes informó que 51 de los 82 pasajeros son libaneses, mientras 23 son del país africano. Además informó que se han encontrado al menos nueve cuerpos y que por ahora no hay indicios de sobrevivientes.

Otros pasajeros son ciudadanos británicos, turcos, franceses, rusos, canadienses, sirios e iraquíes, dijo la compañía aérea en un comunicado colgado en su sitio web.

En el avión también viajaba la esposa del embajador de Francia en Beirut, Marla Pietton.

El gobierno libanés descartó que pudiera tratarse de un atentado.

Labores de rescate

Equipos de rescate tras accidente aéreo en Beirut

Los equipos de rescate trabajan desde el aire y el mar.

En el vuelo ET409 trabajaba una tripulación de ocho miembros, según la aerolínea.

La periodista de la BBC en Beirut Natalia Antelava dijo que los servicios de emergencia comenzaron las labores de rescate después de que se encontraran restos del aparato en las costas de Líbano.

El presidente libanés, Michael Suleiman, destacó que el Ejército trabaja con la Fuerza Interina de la ONU en Líbano (FINUL) en las tareas de rescate y calificó el accidente como "doloroso", especialmente al ocurrir un mes después de que un carguero se hundiera frente a las costas del norte del país.

Etiopía y Líbano mantienen estrechos lazos comerciales. Por ejemplo, miles de etíopes trabajan como empleados domésticos en Líbano.

Por eso Aerolíneas Etíopes tiene una línera regular de vuelos entre Beirut y Addis Abeba.


Names of Lebanese victims

Al Arabiya got the names of the Lebanese victims who were on board of the Ethiopian crashed airliner:


Hanna Nakhouk Kredy
Haidar Hassan Murggy
Ali Youssef Jaber
Alli Ahmed Jaber
Abbas Mohammed Jaber
Mohammed Mustafa Bedouni
Khalil Ibrahim Saleh
Hassan Adnan Kreik
Saad Abdul Hassan Zahr
Hussein Ali Farahat
Mohammed Hassan Kreik
Ali Suhail Yaghy
Rowan Hassan Wazna
Bassem Qassem Khazaal
Haifaa Ahmed Wazna
Ali Ahmed Taj Eddin
Tanal Abdullah Fardoun
Mustafa Haitham Aranout
Fouad Mohammed al-Laqeis
Mohammed Kamal Akkoush
Tony Elias al-Zakhem
Hamza Ali Jafar
Hassan Mohammed Eissawi
Hassan Kamal Ibrahim
Ghassan Ibrahim Qatterggi
Hifaa Ibrahim al-Farran
Hussein Youssef Hajj Ali
Fares Rashid Zubian
Farid Saad Mully
Mohammed Ali Qatebi
Yasser Youssef Mahdi
Anis Mustafa Safa
Hussein Moussa Barakat
Antoine Tawfiq al-Hayek
Elias Anonios Rafee
Tarek George Barakat
Khalil Naggi al-Khazen
Rana Youssef al-Haraka
Mohammed Abbas al-Hussein al-Hajj
Julia Mohammed al-Hajj
Hussein Kamal Hayek
Asaad Masoud al-Faghali
Ziad Naim al-Qesefi
Reda Ali Mestokardi
Albert gergy Assal
Emad Ahmed Hazer
Fouad Mohammed Jaber
Khalil Mohammed Madani
Hassan Mohammed Abdul Muhsen Taj Eddin
Yasser Abdul Hussein Ismail
Jamal Ali Khatoun
Afif Kresht
Abbas Huweily
Anna Mohammed Ebbs

Comentarios

Entradas más populares de este blog

EL MODELO DE REASON

CAUSALIDAD DE LOS ACCIDENTES — EL MODELO DE REASON

La aceptación en toda la industria del concepto de accidente de organización fue posible gracias a un sencillo pero gráficamente poderoso modelo elaborado por el Profesor James Reason, que proporcionó un medio para comprender cómo la aviación (o cualquier otro sistema de producción) funciona con éxito o se dirige al fracaso. Con arreglo a este modelo, los accidentes se producen cuando cierto número de factores permiten que ocurran — siendo cada uno de ellos necesario pero en sí no suficiente para quebrar las defensas del sistema. Debido a que los sistemas complejos como la aviación están extremadamente bien defendidos por capas de defensas profundas, las fallas en un punto único rara vez tienen consecuencias en el sistema aeronáutico. Las fallas de equipo o los errores operacionales nunca son la causa del quiebre de las defensas de seguridad operacional, sino más bien los elementos activadores. Los quiebres de…

La incursión en Barcelona - Una aproximación desde la Seguridad Operacional

Incursión en la pista. Todo suceso en un aeródromo que suponga la presencia incorrecta de una aeronave, vehículo o persona en la zona protegida de una superficie designada para el aterrizaje o despegue de una aeronave (DOC 9870 Manual sobre la prevención de incursiones en la pista)

Según los datos publicados en The Aviation Herald la distancia entre el A340 de AR y el B767 de  UTAir era de 1,7 millas. La siguiente imagen muestra la distancia entre ambas. En la calle M cruzando la pista 02, en base a esos datos publicados la situación quedaría así:




Cabe aclarar algo sobre el video que se ha viralizado en las redes. Las distancias no son lo que parece, el zoom y la posición del que filma dan la sensación de cercanía que no es tal. La posición del A340 que se encuentra en primer plano y el avión aproximando en segundo plano, da espectacularidad y parece que están a punto de impactar, en mi opinión, no es así, teniendo en cuenta los datos de Aviation Herald.
Este comentario no le quita gr…

COMPOSICIÓN DE LAS CENIZAS VOLCÁNICAS Y DE LOS GASES ASOCIADOS

Volcanes activos en la zona cordillerana

COMPOSICIÓN DE LAS CENIZAS VOLCÁNICAS Y DE LOS GASES ASOCIADOS

Esencialmente las nubes de cenizas volcánicas están constituidas por partículas finas de roca pulverizada, cuya composición corresponde a la del magma en el interior de los volcanes. Por consiguiente, la composición de las nubes de cenizas volcánicas varía de un volcán a otro. No obstante, en términos generales, están predominantemente constituidas por sílice (> 50%) junto con cantidades más pequeñas de óxidos de aluminio, hierro, calcio y sodio (Tabla 2-1).
El sílice es una forma de silicato vítreo y examinado por exploración microscópica de electrones se parece a cascos de vidrio de bordes agudos.
Los materiales de silicato de vidrio son muy duros. Ordinariamente de una dureza de nivel 5 ó 6 en la escala de Mohs (La escala Mohs recibe su nombre al minerólogo alemán Friedrich Mohs y se basa en una escala de dureza del talco qu…